Time;durP1;ratioP1;P1;durP2;ratioP2;P2;SDS_P1;SDS_P2;PMS_P1;PMS_P2;Temp;Humidity;BMP_temperature;BMP_pressure;BME280_temperature;BME280_humidity;BME280_pressure;Samples;Min_cycle;Max_cycle;Signal;HPM_P1;HPM_P2
2022/07/14 00:01:57;;;;;;;4.97;4.57;;;21.50;65.30;;;;;;6160852;23;20316;-90
2022/07/14 00:04:25;;;;;;;4.80;4.32;;;21.50;65.30;;;;;;6112691;23;20175;-88
2022/07/14 00:06:53;;;;;;;5.20;4.70;;;21.50;65.30;;;;;;6112329;23;20164;-88
2022/07/14 00:09:19;;;;;;;4.93;4.53;;;21.50;65.30;;;;;;6161110;23;20151;-88
2022/07/14 00:11:45;;;;;;;5.05;4.65;;;21.50;65.30;;;;;;6137136;23;20234;-87
2022/07/14 00:14:14;;;;;;;4.95;4.55;;;21.50;65.30;;;;;;6112910;23;20148;-89
2022/07/14 00:16:40;;;;;;;4.60;4.20;;;21.50;65.30;;;;;;6136826;23;20179;-89
2022/07/14 00:19:12;;;;;;;5.35;4.85;;;21.50;65.40;;;;;;6162163;23;20515;-88
2022/07/14 00:21:44;;;;;;;5.20;4.70;;;21.50;65.40;;;;;;6136673;23;20513;-89
2022/07/14 00:24:13;;;;;;;4.68;4.28;;;21.50;65.40;;;;;;6160492;23;20155;-88
2022/07/14 00:26:42;;;;;;;5.38;4.88;;;21.50;65.40;;;;;;6142760;23;20163;-89
2022/07/14 00:29:14;;;;;;;4.90;4.50;;;21.50;65.30;;;;;;6142379;23;20186;-88
2022/07/14 00:31:39;;;;;;;5.30;4.80;;;21.50;65.30;;;;;;6220630;22;20473;-88
2022/07/14 00:34:08;;;;;;;5.18;4.68;;;21.50;65.40;;;;;;6233087;23;20150;-89
2022/07/14 00:36:37;;;;;;;5.10;4.60;;;21.50;65.40;;;;;;6258820;23;20152;-89
2022/07/14 00:39:06;;;;;;;4.97;4.50;;;21.40;65.30;;;;;;6257074;23;20149;-88
2022/07/14 00:41:32;;;;;;;4.90;4.40;;;21.50;65.40;;;;;;6233156;23;20153;-89
2022/07/14 00:44:08;;;;;;;4.70;4.30;;;21.40;65.40;;;;;;6232307;23;20146;-88
2022/07/14 00:46:40;;;;;;;5.03;4.63;;;21.50;65.40;;;;;;6257750;23;20179;-88
2022/07/14 00:49:06;;;;;;;5.18;4.68;;;21.40;65.40;;;;;;6257977;23;20157;-88
2022/07/14 00:51:34;;;;;;;5.22;4.72;;;21.50;65.40;;;;;;6232893;23;20516;-88
2022/07/14 00:54:00;;;;;;;5.05;4.55;;;21.40;66.20;;;;;;6232085;23;20142;-87
2022/07/14 00:56:29;;;;;;;4.90;4.50;;;21.40;65.40;;;;;;6232095;23;20160;-88
2022/07/14 00:58:55;;;;;;;4.78;4.38;;;21.40;65.40;;;;;;6195044;23;20158;-87
2022/07/14 01:01:22;;;;;;;4.72;4.32;;;21.40;65.40;;;;;;6122119;23;20203;-88
2022/07/14 01:03:49;;;;;;;4.70;4.30;;;21.40;65.40;;;;;;6112671;23;20156;-88
2022/07/14 01:06:31;;;;;;;5.00;4.60;;;21.40;65.40;;;;;;6089405;23;20238;-87
2022/07/14 01:09:00;;;;;;;5.22;4.72;;;21.40;65.40;;;;;;6165831;23;20189;-88
2022/07/14 01:11:30;;;;;;;4.80;4.40;;;21.50;65.50;;;;;;6117146;23;20144;-89
2022/07/14 01:14:02;;;;;;;4.78;4.38;;;21.40;65.40;;;;;;6165936;23;20158;-89
2022/07/14 01:16:28;;;;;;;5.10;4.60;;;21.40;65.40;;;;;;6142134;23;20152;-89
2022/07/14 01:18:55;;;;;;;5.00;4.60;;;21.40;65.40;;;;;;6082643;23;20171;-89
2022/07/14 01:21:26;;;;;;;5.38;4.88;;;21.40;65.50;;;;;;6083124;23;20183;-88
2022/07/14 01:23:56;;;;;;;5.10;4.60;;;21.40;65.50;;;;;;6083003;23;20237;-90
2022/07/14 01:26:21;;;;;;;5.40;4.90;;;21.40;65.60;;;;;;6083729;23;20212;-88
2022/07/14 01:28:47;;;;;;;5.28;4.78;;;21.40;66.30;;;;;;6085358;23;20196;-88
2022/07/14 01:31:17;;;;;;;5.03;4.53;;;21.40;65.60;;;;;;6141071;23;20152;-88
2022/07/14 01:33:43;;;;;;;4.75;4.35;;;21.40;65.60;;;;;;6096424;23;20599;-89
2022/07/14 01:36:12;;;;;;;5.20;4.70;;;21.40;65.50;;;;;;6177174;23;20210;-89
2022/07/14 01:38:38;;;;;;;4.97;4.50;;;21.40;65.60;;;;;;6151888;23;20185;-89
2022/07/14 01:41:08;;;;;;;4.72;4.32;;;21.40;65.60;;;;;;6151311;23;20146;-89
2022/07/14 01:43:35;;;;;;;5.20;4.80;;;21.50;65.60;;;;;;6152125;23;20158;-89
2022/07/14 01:46:01;;;;;;;5.07;4.57;;;21.30;65.50;;;;;;6166181;23;20179;-90
2022/07/14 01:48:27;;;;;;;4.70;4.30;;;21.40;65.60;;;;;;6166178;23;20179;-88
2022/07/14 01:50:54;;;;;;;4.95;4.55;;;21.30;65.50;;;;;;6141285;23;20168;-88
2022/07/14 01:53:20;;;;;;;5.22;4.78;;;21.30;65.50;;;;;;6059439;23;20156;-89
2022/07/14 01:55:46;;;;;;;5.05;4.60;;;21.40;65.60;;;;;;6070289;23;20176;-88
2022/07/14 01:58:14;;;;;;;5.32;4.82;;;21.30;65.60;;;;;;6135963;23;20152;-88
2022/07/14 02:00:40;;;;;;;4.95;4.55;;;21.30;65.60;;;;;;6137014;23;20159;-88
2022/07/14 02:03:07;;;;;;;5.03;4.55;;;21.40;65.60;;;;;;6112450;23;20148;-88
2022/07/14 02:05:33;;;;;;;5.00;4.50;;;21.30;65.60;;;;;;6153969;23;20298;-89
2022/07/14 02:08:04;;;;;;;5.35;4.85;;;21.30;65.60;;;;;;6166541;23;20183;-88
2022/07/14 02:13:13;;;;;;;5.13;4.63;;;21.30;65.60;;;;;;6165060;23;20136;-88
2022/07/14 02:15:40;;;;;;;4.80;4.40;;;21.30;65.60;;;;;;6141059;23;20207;-88
2022/07/14 02:18:08;;;;;;;5.07;4.68;;;21.30;65.60;;;;;;6195100;23;20214;-89
2022/07/14 02:20:35;;;;;;;5.05;4.65;;;21.30;65.60;;;;;;6147000;23;20470;-89
2022/07/14 02:23:02;;;;;;;4.90;4.45;;;21.30;65.60;;;;;;6147202;23;20150;-88
2022/07/14 02:25:31;;;;;;;5.10;4.70;;;21.30;65.70;;;;;;6145858;23;20644;-89
2022/07/14 02:27:57;;;;;;;5.30;4.80;;;21.30;65.60;;;;;;6151915;23;20621;-88
2022/07/14 02:30:23;;;;;;;5.15;4.65;;;21.30;65.70;;;;;;6175894;23;20157;-88
2022/07/14 02:32:51;;;;;;;5.22;4.72;;;21.30;65.70;;;;;;6200678;23;20146;-87
2022/07/14 02:35:19;;;;;;;4.78;4.38;;;21.30;65.70;;;;;;6201232;23;20146;-87
2022/07/14 02:37:48;;;;;;;5.13;4.63;;;21.30;65.70;;;;;;6201826;23;20142;-89
2022/07/14 02:40:15;;;;;;;4.93;4.53;;;21.30;65.60;;;;;;6202678;23;20152;-88
2022/07/14 02:42:41;;;;;;;5.18;4.65;;;21.30;65.70;;;;;;6212834;22;20181;-89
2022/07/14 02:45:10;;;;;;;5.15;4.75;;;21.30;65.60;;;;;;6240966;22;20159;-88
2022/07/14 02:47:43;;;;;;;4.85;4.45;;;21.30;65.60;;;;;;6240961;22;20242;-88
2022/07/14 02:50:14;;;;;;;4.57;4.18;;;21.30;65.70;;;;;;6267623;22;20144;-89
2022/07/14 02:52:44;;;;;;;4.95;4.47;;;21.30;65.60;;;;;;6243340;22;20204;-88
2022/07/14 02:55:11;;;;;;;4.65;4.22;;;21.30;65.60;;;;;;6241852;22;20159;-90
2022/07/14 02:57:39;;;;;;;5.05;4.55;;;21.30;65.70;;;;;;6241965;22;20151;-89
2022/07/14 03:00:06;;;;;;;5.30;4.80;;;21.30;65.70;;;;;;6241785;22;20168;-88
2022/07/14 03:02:35;;;;;;;5.20;4.70;;;21.30;65.60;;;;;;6239440;22;20159;-88
2022/07/14 03:05:04;;;;;;;5.00;4.55;;;21.20;65.50;;;;;;6203823;23;20765;-88
2022/07/14 03:07:38;;;;;;;5.03;4.53;;;21.30;65.60;;;;;;6203989;23;20177;-88
2022/07/14 03:10:04;;;;;;;5.35;4.85;;;21.30;65.60;;;;;;6204443;23;20154;-88
2022/07/14 03:12:42;;;;;;;5.22;4.72;;;21.40;65.60;;;;;;6143860;23;20495;-88
2022/07/14 03:15:15;;;;;;;5.22;4.60;;;21.30;65.60;;;;;;6120016;23;20498;-90
2022/07/14 03:17:47;;;;;;;4.95;4.50;;;21.30;65.50;;;;;;6119685;23;20167;-88
2022/07/14 03:20:18;;;;;;;5.35;4.85;;;21.30;65.60;;;;;;6115080;23;20156;-88
2022/07/14 03:22:53;;;;;;;4.78;4.38;;;21.30;65.60;;;;;;6115452;23;20183;-89
2022/07/14 03:25:24;;;;;;;4.95;4.53;;;21.30;65.40;;;;;;6138524;23;20155;-88
2022/07/14 03:28:02;;;;;;;4.75;4.35;;;21.40;65.40;;;;;;6139396;23;20176;-88
2022/07/14 03:30:31;;;;;;;4.90;4.47;;;21.30;65.40;;;;;;6056110;23;20258;-88
2022/07/14 03:33:15;;;;;;;4.82;4.40;;;21.30;65.30;;;;;;6081376;23;20205;-88
2022/07/14 03:35:47;;;;;;;4.80;4.40;;;21.30;65.20;;;;;;6077232;23;20182;-89
2022/07/14 03:38:24;;;;;;;4.90;4.50;;;21.30;65.20;;;;;;6085788;23;20164;-88
2022/07/14 03:40:54;;;;;;;5.45;4.95;;;21.30;65.20;;;;;;6109523;23;20189;-89
2022/07/14 03:43:43;;;;;;;4.93;4.43;;;21.40;65.30;;;;;;6056497;23;20230;-89
2022/07/14 03:46:23;;;;;;;5.00;4.55;;;21.40;65.30;;;;;;6080914;23;20207;-88
2022/07/14 03:49:21;;;;;;;5.15;4.65;;;21.40;65.20;;;;;;6052479;23;20193;-89
2022/07/14 03:51:57;;;;;;;4.95;4.55;;;21.30;64.90;;;;;;6033022;23;20203;-88
2022/07/14 03:54:36;;;;;;;4.82;4.43;;;21.40;65.00;;;;;;5921789;24;20197;-89
2022/07/14 03:57:12;;;;;;;4.75;4.35;;;21.50;64.90;;;;;;5889820;24;20153;-88
2022/07/14 03:59:54;;;;;;;5.30;4.80;;;21.40;64.80;;;;;;5890894;24;20164;-88
2022/07/14 04:02:28;;;;;;;5.15;4.65;;;21.50;64.80;;;;;;5858395;24;20178;-88
2022/07/14 04:05:24;;;;;;;5.07;4.57;;;21.50;65.40;;;;;;5777889;24;20636;-89
2022/07/14 04:08:19;;;;;;;4.88;4.47;;;21.50;64.70;;;;;;5762890;24;20185;-89
2022/07/14 04:11:07;;;;;;;5.10;4.60;;;21.50;64.60;;;;;;5753053;24;20243;-88
2022/07/14 04:13:45;;;;;;;4.80;4.40;;;21.50;64.50;;;;;;5774052;24;20164;-89
2022/07/14 04:16:23;;;;;;;4.70;4.30;;;21.50;64.40;;;;;;5798048;24;20227;-89
2022/07/14 04:19:14;;;;;;;4.78;4.38;;;21.60;64.30;;;;;;5790072;24;20175;-89
2022/07/14 04:22:05;;;;;;;4.85;4.45;;;21.60;64.10;;;;;;5800184;24;20165;-89
2022/07/14 04:24:41;;;;;;;5.10;4.60;;;21.60;64.00;;;;;;5753100;24;20623;-88
2022/07/14 04:27:22;;;;;;;;;;;;;;;;;;;;;
2022/07/14 04:29:50;;;;;;;5.00;4.53;;;21.60;64.00;;;;;;5794586;24;20186;-88
2022/07/14 04:32:36;;;;;;;4.80;4.40;;;21.70;64.10;;;;;;5815922;24;20161;-87
2022/07/14 04:35:27;;;;;;;4.55;4.15;;;21.60;64.00;;;;;;5903848;23;20235;-88
2022/07/14 04:38:04;;;;;;;4.75;4.35;;;21.70;63.90;;;;;;5956660;23;20159;-89
2022/07/14 04:40:45;;;;;;;4.70;4.30;;;21.70;63.80;;;;;;5978173;23;20159;-89
2022/07/14 04:43:43;;;;;;;4.60;4.20;;;21.70;64.60;;;;;;5967033;23;20223;-88
2022/07/14 04:46:36;;;;;;;4.35;3.95;;;21.70;63.60;;;;;;6014160;23;20159;-89
2022/07/14 04:52:18;;;;;;;4.55;4.15;;;21.70;63.30;;;;;;5885035;24;20170;-89
2022/07/14 04:55:20;;;;;;;4.70;4.30;;;21.70;63.40;;;;;;5951327;24;20590;-88
2022/07/14 04:58:19;;;;;;;4.18;3.78;;;21.70;63.40;;;;;;5966322;23;20175;-89
2022/07/14 05:01:05;;;;;;;4.32;3.92;;;21.70;62.70;;;;;;5970010;23;20202;-88
2022/07/14 05:03:59;;;;;;;;;;;;;;;;;;;;;
2022/07/14 05:06:45;;;;;;;;;;;;;;;;;;;;;
2022/07/14 05:09:25;;;;;;;4.72;3.70;;;21.70;62.10;;;;;;5933166;24;20216;-89
2022/07/14 05:12:11;;;;;;;;;;;;;;;;;;;;;
2022/07/14 05:14:57;;;;;;;;;;;;;;;;;;;;;
2022/07/14 05:17:58;;;;;;;4.07;3.70;;;21.80;62.00;;;;;;5942747;24;20187;-89
2022/07/14 05:21:01;;;;;;;4.07;3.75;;;21.70;61.30;;;;;;5885448;24;20246;-89
2022/07/14 05:23:37;;;;;;;4.10;3.70;;;21.80;61.30;;;;;;5920261;24;20161;-89
2022/07/14 05:26:52;;;;;;;4.32;3.92;;;21.80;60.80;;;;;;5909746;24;20156;-89
2022/07/14 05:29:31;;;;;;;4.53;4.13;;;21.80;60.60;;;;;;5966143;24;20164;-90
2022/07/14 05:32:39;;;;;;;3.85;3.50;;;21.80;60.70;;;;;;5987471;24;20171;-89
2022/07/14 05:35:54;;;;;;;3.83;3.53;;;21.80;60.50;;;;;;5983059;23;20167;-88
2022/07/14 05:38:33;;;;;;;4.03;3.65;;;21.80;60.20;;;;;;5964653;24;20160;-88
2022/07/14 05:41:09;;;;;;;3.65;3.35;;;21.80;60.50;;;;;;5966070;24;20207;-88
2022/07/14 05:44:27;;;;;;;3.78;3.45;;;21.90;60.10;;;;;;5911101;24;20153;-88
2022/07/14 05:46:56;;;;;;;3.75;3.45;;;21.90;60.00;;;;;;5883677;24;20691;-88
2022/07/14 05:49:57;;;;;;;;;;;;;;;;;;;;;
2022/07/14 05:52:43;;;;;;;3.00;2.80;;;21.90;59.70;;;;;;5856673;24;20725;-88
2022/07/14 05:55:22;;;;;;;;;;;;;;;;;;;;;
2022/07/14 06:01:26;;;;;;;;;;;;;;;;;;;;;
2022/07/14 06:04:08;;;;;;;3.55;3.25;;;22.00;58.80;;;;;;5789298;24;20182;-89
2022/07/14 06:09:37;;;;;;;3.10;2.90;;;21.90;58.70;;;;;;5751319;25;20669;-89
2022/07/14 06:12:10;;;;;;;3.38;3.08;;;22.00;58.60;;;;;;5721315;25;20255;-88
2022/07/14 06:14:51;;;;;;;;;;;;;;;;;;;;;
2022/07/14 06:17:34;;;;;;;3.60;3.30;;;21.90;58.50;;;;;;5689644;25;20194;-88
2022/07/14 06:20:39;;;;;;;3.25;2.80;;;22.00;58.20;;;;;;5695557;25;20637;-88
2022/07/14 06:23:30;;;;;;;3.40;3.10;;;22.10;58.20;;;;;;5651532;25;20195;-88
2022/07/14 06:26:18;;;;;;;3.25;2.97;;;22.00;57.90;;;;;;5687896;25;20198;-89
2022/07/14 06:29:02;;;;;;;2.65;2.45;;;22.00;57.80;;;;;;5720222;25;20198;-88
2022/07/14 06:31:36;;;;;;;3.28;2.97;;;22.10;57.50;;;;;;5756667;24;20224;-88
2022/07/14 06:34:30;;;;;;;3.00;2.80;;;22.10;57.40;;;;;;5772526;24;20162;-88
2022/07/14 06:37:21;;;;;;;2.95;2.75;;;22.10;57.40;;;;;;5704840;25;20296;-87
2022/07/14 06:39:50;;;;;;;2.80;2.60;;;22.10;57.40;;;;;;5756598;24;20160;-88
2022/07/14 06:42:25;;;;;;;2.83;2.63;;;22.00;57.30;;;;;;5779538;24;20344;-87
2022/07/14 06:45:11;;;;;;;2.70;2.50;;;22.00;57.20;;;;;;5747704;24;20166;-88
2022/07/14 06:47:39;;;;;;;3.00;2.70;;;22.00;57.30;;;;;;5658148;24;20206;-88
2022/07/14 06:50:14;;;;;;;2.65;2.45;;;22.00;57.10;;;;;;5698122;25;20215;-90
2022/07/14 06:53:08;;;;;;;;;;;;;;;;;;;;;
2022/07/14 06:55:47;;;;;;;2.97;2.78;;;22.10;57.10;;;;;;5726087;24;20190;-90
2022/07/14 06:58:35;;;;;;;;;;;;;;;;;;;;;
2022/07/14 07:01:15;;;;;;;2.70;2.50;;;22.00;56.60;;;;;;5831305;24;20190;-87
2022/07/14 07:04:00;;;;;;;;;;;;;;;;;;;;;
2022/07/14 07:06:50;;;;;;;2.97;2.67;;;22.00;56.40;;;;;;5839413;24;20233;-88
2022/07/14 07:09:40;;;;;;;2.90;2.70;;;22.10;56.40;;;;;;5856548;24;20274;-87
2022/07/14 07:12:21;;;;;;;2.80;2.58;;;22.10;56.40;;;;;;5847353;24;20255;-87
2022/07/14 07:15:00;;;;;;;2.70;2.50;;;22.10;56.00;;;;;;5832995;24;20167;-88
2022/07/14 07:17:36;;;;;;;2.40;2.20;;;22.10;56.10;;;;;;5806374;24;20230;-88
2022/07/14 07:20:05;;;;;;;2.40;2.20;;;22.20;55.90;;;;;;5784747;24;20158;-88
2022/07/14 07:22:41;;;;;;;2.45;2.25;;;22.20;55.60;;;;;;5810611;24;20163;-88
2022/07/14 07:25:12;;;;;;;2.88;2.67;;;22.20;55.60;;;;;;5831940;24;20220;-87
2022/07/14 07:27:44;;;;;;;2.42;2.22;;;22.20;55.50;;;;;;5838848;24;20245;-88
2022/07/14 07:30:21;;;;;;;2.50;2.30;;;22.20;55.50;;;;;;5858177;24;20155;-88
2022/07/14 07:33:01;;;;;;;2.65;2.45;;;22.20;55.60;;;;;;5810747;24;20202;-89
2022/07/14 07:35:34;;;;;;;2.42;2.22;;;22.30;55.30;;;;;;5864023;24;20159;-89
2022/07/14 07:38:05;;;;;;;2.42;2.22;;;22.20;55.20;;;;;;5908004;24;20645;-87
2022/07/14 07:40:36;;;;;;;2.08;1.98;;;22.20;55.20;;;;;;5859161;24;20166;-88
2022/07/14 07:43:20;;;;;;;2.58;2.20;;;22.30;55.20;;;;;;5852672;24;20158;-89
2022/07/14 07:45:59;;;;;;;2.55;2.35;;;22.30;55.00;;;;;;5922249;24;20252;-88
2022/07/14 07:48:32;;;;;;;2.45;2.25;;;22.30;54.80;;;;;;5894465;24;20732;-88
2022/07/14 07:51:04;;;;;;;2.35;2.15;;;22.30;54.90;;;;;;5895640;24;20163;-88
2022/07/14 07:53:29;;;;;;;2.15;1.95;;;22.30;54.90;;;;;;5895420;24;20156;-88
2022/07/14 07:56:02;;;;;;;2.10;2.00;;;22.30;54.80;;;;;;5951711;23;20634;-88
2022/07/14 07:58:31;;;;;;;2.30;2.10;;;22.30;54.40;;;;;;5981821;23;20161;-88
2022/07/14 08:00:59;;;;;;;2.50;2.30;;;22.40;54.50;;;;;;5995573;24;20528;-89
2022/07/14 08:03:31;;;;;;;2.30;2.10;;;22.30;54.60;;;;;;5995155;23;20181;-89
2022/07/14 08:06:04;;;;;;;2.30;2.10;;;22.20;54.60;;;;;;6027129;23;20224;-89
2022/07/14 08:08:42;;;;;;;2.55;2.10;;;22.30;54.40;;;;;;5998936;23;20194;-88
2022/07/14 08:11:14;;;;;;;1.98;1.88;;;22.30;54.40;;;;;;5997073;23;20207;-88
2022/07/14 08:13:55;;;;;;;2.30;2.10;;;22.30;54.30;;;;;;6033198;23;20157;-88
2022/07/14 08:16:26;;;;;;;2.15;1.90;;;22.40;54.30;;;;;;6001536;23;20154;-88
2022/07/14 08:19:00;;;;;;;2.10;1.90;;;22.40;54.10;;;;;;5998133;23;20159;-88
2022/07/14 08:21:29;;;;;;;2.15;2.05;;;22.30;54.10;;;;;;6070008;23;20194;-88
2022/07/14 08:24:01;;;;;;;2.45;2.25;;;22.40;54.10;;;;;;6083202;23;20157;-88
2022/07/14 08:26:32;;;;;;;1.85;1.75;;;22.40;54.10;;;;;;6104560;23;20520;-88
2022/07/14 08:29:00;;;;;;;2.20;2.05;;;22.40;53.90;;;;;;6032217;23;20191;-89
2022/07/14 08:31:37;;;;;;;2.28;2.08;;;22.30;53.80;;;;;;6080220;23;20270;-88
2022/07/14 08:34:06;;;;;;;1.67;1.58;;;22.40;53.90;;;;;;6078979;23;20180;-87
2022/07/14 08:36:38;;;;;;;1.90;1.80;;;22.40;53.80;;;;;;6079472;23;20155;-88
2022/07/14 08:39:08;;;;;;;1.90;1.80;;;22.30;53.70;;;;;;6080450;23;20168;-88
2022/07/14 08:41:47;;;;;;;1.83;1.73;;;22.30;53.80;;;;;;6078934;23;20157;-89
2022/07/14 08:44:13;;;;;;;2.00;1.90;;;22.40;53.60;;;;;;6093950;23;20151;-88
2022/07/14 08:46:50;;;;;;;1.90;1.80;;;22.40;53.60;;;;;;6165841;23;20171;-88
2022/07/14 08:49:21;;;;;;;1.88;1.77;;;22.40;53.50;;;;;;6137483;23;20195;-88
2022/07/14 08:51:53;;;;;;;1.90;1.80;;;22.40;53.60;;;;;;6138380;23;20151;-88
2022/07/14 08:54:27;;;;;;;1.70;1.60;;;22.40;53.60;;;;;;6079028;23;20526;-89
2022/07/14 08:56:54;;;;;;;2.00;1.90;;;22.30;53.60;;;;;;6051909;23;20153;-89
2022/07/14 08:59:28;;;;;;;1.80;1.70;;;22.30;53.50;;;;;;6048776;23;20157;-88
2022/07/14 09:02:03;;;;;;;2.03;1.90;;;22.30;53.40;;;;;;6016329;23;20205;-88
2022/07/14 09:04:36;;;;;;;1.88;1.75;;;22.30;53.50;;;;;;5994831;23;20158;-88
2022/07/14 09:07:10;;;;;;;1.67;1.55;;;22.40;53.40;;;;;;6044853;23;20173;-89
2022/07/14 09:09:38;;;;;;;1.92;1.83;;;22.30;53.30;;;;;;6044179;23;20227;-90
2022/07/14 09:12:09;;;;;;;1.90;1.80;;;22.40;53.30;;;;;;6044579;23;20607;-89
2022/07/14 09:17:20;;;;;;;1.85;1.75;;;22.40;53.10;;;;;;6051630;23;20158;-88
2022/07/14 09:20:09;;;;;;;1.80;1.70;;;22.40;53.00;;;;;;6063648;23;20296;-89
2022/07/14 09:22:39;;;;;;;1.70;1.60;;;22.40;53.00;;;;;;6107042;23;20210;-88
2022/07/14 09:25:08;;;;;;;1.80;1.70;;;22.30;52.80;;;;;;6072440;23;20214;-89
2022/07/14 09:27:34;;;;;;;2.10;1.83;;;22.40;52.80;;;;;;6073132;23;20181;-87
2022/07/14 09:30:04;;;;;;;1.65;1.55;;;22.40;52.80;;;;;;6048781;23;20164;-89
2022/07/14 09:32:44;;;;;;;1.90;1.80;;;22.40;52.90;;;;;;6067500;23;20229;-88
2022/07/14 09:35:19;;;;;;;1.52;1.42;;;22.40;52.80;;;;;;6082455;23;20159;-89
2022/07/14 09:37:46;;;;;;;1.60;1.50;;;22.40;52.60;;;;;;6112231;23;20147;-88
2022/07/14 09:40:26;;;;;;;1.80;1.70;;;22.40;52.60;;;;;;6136308;23;20176;-89
2022/07/14 09:42:57;;;;;;;2.03;1.83;;;22.40;52.60;;;;;;6136779;23;20155;-90
2022/07/14 09:45:29;;;;;;;1.60;1.50;;;22.40;52.60;;;;;;6082707;23;20183;-89
2022/07/14 09:47:58;;;;;;;1.80;1.70;;;22.40;52.30;;;;;;6082847;23;20597;-88
2022/07/14 09:50:54;;;;;;;1.73;1.63;;;22.40;52.30;;;;;;6082983;23;20220;-90
2022/07/14 09:53:27;;;;;;;1.60;1.50;;;22.40;53.00;;;;;;6086456;23;20164;-88
2022/07/14 09:56:09;;;;;;;1.80;1.70;;;22.40;52.30;;;;;;6085425;23;20151;-88
2022/07/14 09:58:45;;;;;;;1.50;1.40;;;22.40;52.20;;;;;;6110432;23;20163;-88
2022/07/14 10:01:14;;;;;;;1.30;1.20;;;22.40;52.00;;;;;;6134840;23;20638;-89
2022/07/14 10:03:46;;;;;;;1.58;1.48;;;22.40;51.90;;;;;;6135617;23;20151;-89
2022/07/14 10:06:14;;;;;;;1.80;1.70;;;22.50;51.90;;;;;;6135646;23;20235;-88
2022/07/14 10:08:46;;;;;;;1.55;1.45;;;22.40;51.90;;;;;;6130368;23;20242;-89
2022/07/14 10:11:12;;;;;;;2.00;1.60;;;22.50;51.80;;;;;;6082081;23;20197;-89
2022/07/14 10:13:38;;;;;;;1.50;1.40;;;22.50;51.70;;;;;;6106080;23;20153;-88
2022/07/14 10:16:04;;;;;;;1.40;1.30;;;22.50;51.50;;;;;;6094568;23;20221;-88
2022/07/14 10:18:32;;;;;;;1.70;1.60;;;22.50;51.50;;;;;;6110716;23;20151;-90
2022/07/14 10:21:01;;;;;;;1.70;1.60;;;22.50;51.60;;;;;;6110669;23;20202;-89
2022/07/14 10:23:29;;;;;;;1.50;1.40;;;22.50;51.50;;;;;;6084580;23;20244;-89
2022/07/14 10:26:05;;;;;;;1.70;1.60;;;22.50;51.50;;;;;;6088306;23;20191;-87
2022/07/14 10:28:31;;;;;;;1.50;1.40;;;22.40;51.50;;;;;;6106868;23;20244;-89
2022/07/14 10:31:23;;;;;;;1.70;1.60;;;22.50;51.60;;;;;;6159216;23;20150;-88
2022/07/14 10:34:08;;;;;;;1.58;1.45;;;22.40;51.60;;;;;;6135119;23;20158;-88
2022/07/14 10:36:51;;;;;;;1.55;1.45;;;22.40;51.60;;;;;;6110308;23;20160;-88
2022/07/14 10:39:38;;;;;;;1.70;1.60;;;22.40;51.40;;;;;;6145438;23;20563;-89
2022/07/14 10:42:25;;;;;;;1.60;1.50;;;22.40;51.30;;;;;;6140333;23;20238;-89
2022/07/14 10:44:52;;;;;;;1.48;1.38;;;22.50;51.20;;;;;;6141183;23;20151;-88
2022/07/14 10:47:25;;;;;;;1.55;1.45;;;22.50;51.20;;;;;;6157027;23;20154;-89
2022/07/14 10:50:09;;;;;;;1.55;1.45;;;22.40;51.10;;;;;;6196146;23;20232;-88
2022/07/14 10:53:03;;;;;;;1.40;1.30;;;22.40;51.00;;;;;;6205983;23;20150;-88
2022/07/14 10:55:37;;;;;;;1.50;1.40;;;22.50;51.00;;;;;;6209669;23;20141;-89
2022/07/14 10:58:26;;;;;;;1.55;1.42;;;22.50;50.80;;;;;;6255305;23;20182;-89
2022/07/14 11:00:56;;;;;;;1.52;1.30;;;22.50;50.70;;;;;;6230591;23;20142;-90
2022/07/14 11:03:31;;;;;;;1.48;1.38;;;22.50;50.50;;;;;;6230051;23;20161;-89
2022/07/14 11:06:13;;;;;;;1.48;1.38;;;22.50;50.50;;;;;;6233630;23;20184;-88
2022/07/14 11:09:43;;;;;;;;;;;;;;;;;;;;;
2022/07/14 11:17:01;;;;;;;;;;;;;;;;;;;;;
2022/07/14 11:23:45;;;;;;;;;;;;;;;;;;;;;
2022/07/14 11:26:46;;;;;;;;;;;;;;;;;;;;;
2022/07/14 11:29:41;;;;;;;1.50;1.40;;;22.60;49.80;;;;;;5692631;25;20214;-90
2022/07/14 11:33:00;;;;;;;1.40;1.30;;;22.60;49.70;;;;;;5675324;25;20171;-89
2022/07/14 11:39:25;;;;;;;1.20;1.10;;;22.50;49.70;;;;;;5678963;25;20167;-91
2022/07/14 11:42:23;;;;;;;1.40;1.30;;;22.50;49.50;;;;;;5651324;25;20163;-91
2022/07/14 11:45:48;;;;;;;1.42;1.33;;;22.50;49.60;;;;;;5628719;25;20168;-89
2022/07/14 11:48:37;;;;;;;1.20;1.10;;;22.50;49.60;;;;;;5590335;25;20194;-89
2022/07/14 11:51:32;;;;;;;1.40;1.30;;;22.50;49.50;;;;;;5583152;25;20221;-90
2022/07/14 11:54:24;;;;;;;;;;;;;;;;;;;;;
2022/07/14 11:57:22;;;;;;;1.52;1.30;;;22.60;49.40;;;;;;5738510;25;20188;-90
2022/07/14 12:00:27;;;;;;;;;;;;;;;;;;;;;
2022/07/14 12:03:28;;;;;;;1.00;1.00;;;22.50;49.40;;;;;;5826416;24;20183;-89
2022/07/14 12:06:43;;;;;;;1.60;1.50;;;22.60;49.30;;;;;;5801534;24;20214;-90
2022/07/14 12:09:56;;;;;;;;;;;;;;;;;;;;;
2022/07/14 12:12:48;;;;;;;;;;;;;;;;;;;;;
2022/07/14 12:16:01;;;;;;;1.25;1.15;;;22.60;49.10;;;;;;5860793;24;20184;-89
2022/07/14 12:18:49;;;;;;;1.02;1.02;;;22.70;49.00;;;;;;5824972;24;20224;-90
2022/07/14 12:22:21;;;;;;;;;;;;;;;;;;;;;
2022/07/14 12:25:06;;;;;;;1.20;1.20;;;22.60;49.10;;;;;;5835913;24;20214;-90
2022/07/14 12:29:19;;;;;;;;;;;;;;;;;;;;;
2022/07/14 12:32:07;;;;;;;;;;;;;;;;;;;;;
2022/07/14 12:46:15;;;;;;;1.20;1.10;;;22.60;48.80;;;;;;5961997;24;20171;-89
2022/07/14 12:49:31;;;;;;;1.30;1.20;;;22.60;48.90;;;;;;5964243;24;20191;-90
2022/07/14 13:53:36;;;;;;;0.85;0.70;;;21.40;56.10;;;;;;6176215;23;20265;-89
2022/07/14 13:56:42;;;;;;;;;;;;;;;;;;;;;
2022/07/14 13:59:38;;;;;;;0.82;0.82;;;21.30;56.00;;;;;;6082470;23;20152;-89
2022/07/14 14:02:25;;;;;;;;;;;;;;;;;;;;;
2022/07/14 14:05:25;;;;;;;0.70;0.70;;;21.30;55.90;;;;;;5952599;24;20215;-89
2022/07/14 14:08:35;;;;;;;;;;;;;;;;;;;;;
2022/07/14 14:14:35;;;;;;;;;;;;;;;;;;;;;
2022/07/14 14:20:50;;;;;;;0.60;0.60;;;21.30;56.20;;;;;;5693079;25;20164;-88
2022/07/14 14:24:08;;;;;;;;;;;;;;;;;;;;;
2022/07/14 14:27:19;;;;;;;0.50;0.50;;;21.30;56.20;;;;;;5589953;25;20212;-89
2022/07/14 14:33:49;;;;;;;0.60;0.60;;;21.20;56.00;;;;;;5671135;25;20213;-90
2022/07/14 15:02:31;;;;;;;;;;;;;;;;;;;;;
2022/07/14 15:49:16;;;;;;;;;;;;;;;;;;;;;
2022/07/14 15:55:39;;;;;;;;;;;;;;;;;;;;;
2022/07/14 16:10:58;;;;;;;;;;;;;;;;;;;;;
2022/07/14 16:28:09;;;;;;;0.63;0.63;;;21.10;56.80;;;;;;5500225;26;20268;-90
